sensor_id;sensor_type;location;lat;lon;timestamp;P1;P2;P0
68713;PMS7003;55690;51.566;19.198;2023-04-24T00:02:47;19;19;14
68713;PMS7003;55690;51.566;19.198;2023-04-24T00:06:54;30;21;17
68713;PMS7003;55690;51.566;19.198;2023-04-24T00:11:00;20;18;15
68713;PMS7003;55690;51.566;19.198;2023-04-24T00:15:06;15;15;11
68713;PMS7003;55690;51.566;19.198;2023-04-24T00:19:12;17;12;7
68713;PMS7003;55690;51.566;19.198;2023-04-24T00:23:18;19;19;15
68713;PMS7003;55690;51.566;19.198;2023-04-24T00:27:25;22;18;14
68713;PMS7003;55690;51.566;19.198;2023-04-24T00:31:31;22;21;18
68713;PMS7003;55690;51.566;19.198;2023-04-24T00:35:37;28;13;9
68713;PMS7003;55690;51.566;19.198;2023-04-24T00:39:43;18;18;10
68713;PMS7003;55690;51.566;19.198;2023-04-24T00:43:49;20;12;9
68713;PMS7003;55690;51.566;19.198;2023-04-24T00:47:55;20;14;11
68713;PMS7003;55690;51.566;19.198;2023-04-24T00:52:01;19;19;12
68713;PMS7003;55690;51.566;19.198;2023-04-24T00:56:09;21;17;12
68713;PMS7003;55690;51.566;19.198;2023-04-24T01:00:14;23;16;14
68713;PMS7003;55690;51.566;19.198;2023-04-24T01:04:20;24;16;13
68713;PMS7003;55690;51.566;19.198;2023-04-24T01:08:26;22;17;12
68713;PMS7003;55690;51.566;19.198;2023-04-24T01:12:32;19;17;12
68713;PMS7003;55690;51.566;19.198;2023-04-24T01:16:39;19;18;14
68713;PMS7003;55690;51.566;19.198;2023-04-24T01:20:45;25;15;11
68713;PMS7003;55690;51.566;19.198;2023-04-24T01:24:51;21;17;11
68713;PMS7003;55690;51.566;19.198;2023-04-24T01:28:58;27;14;12
68713;PMS7003;55690;51.566;19.198;2023-04-24T01:33:03;18;14;11
68713;PMS7003;55690;51.566;19.198;2023-04-24T01:37:09;27;18;13
68713;PMS7003;55690;51.566;19.198;2023-04-24T01:41:16;29;17;12
68713;PMS7003;55690;51.566;19.198;2023-04-24T01:45:22;17;16;12
68713;PMS7003;55690;51.566;19.198;2023-04-24T01:49:28;25;22;16
68713;PMS7003;55690;51.566;19.198;2023-04-24T01:53:34;20;16;13
68713;PMS7003;55690;51.566;19.198;2023-04-24T01:57:40;25;18;12
68713;PMS7003;55690;51.566;19.198;2023-04-24T02:01:46;16;13;11
68713;PMS7003;55690;51.566;19.198;2023-04-24T02:05:53;17;13;10
68713;PMS7003;55690;51.566;19.198;2023-04-24T02:09:59;22;20;15
68713;PMS7003;55690;51.566;19.198;2023-04-24T02:14:05;14;12;10
68713;PMS7003;55690;51.566;19.198;2023-04-24T02:18:11;15;13;10
68713;PMS7003;55690;51.566;19.198;2023-04-24T02:22:17;14;13;10
68713;PMS7003;55690;51.566;19.198;2023-04-24T02:26:24;17;14;11
68713;PMS7003;55690;51.566;19.198;2023-04-24T02:30:30;31;19;13
68713;PMS7003;55690;51.566;19.198;2023-04-24T02:34:36;29;17;10
68713;PMS7003;55690;51.566;19.198;2023-04-24T02:38:42;16;12;10
68713;PMS7003;55690;51.566;19.198;2023-04-24T02:42:48;22;13;9
68713;PMS7003;55690;51.566;19.198;2023-04-24T02:46:55;16;15;13
68713;PMS7003;55690;51.566;19.198;2023-04-24T02:51:01;18;11;8
68713;PMS7003;55690;51.566;19.198;2023-04-24T02:55:07;17;13;10
68713;PMS7003;55690;51.566;19.198;2023-04-24T02:59:13;16;16;11
68713;PMS7003;55690;51.566;19.198;2023-04-24T03:03:19;16;11;10
68713;PMS7003;55690;51.566;19.198;2023-04-24T03:07:25;14;14;9
68713;PMS7003;55690;51.566;19.198;2023-04-24T03:11:32;18;18;14
68713;PMS7003;55690;51.566;19.198;2023-04-24T03:15:38;20;17;12
68713;PMS7003;55690;51.566;19.198;2023-04-24T03:19:44;29;18;14
68713;PMS7003;55690;51.566;19.198;2023-04-24T03:23:50;20;13;11
68713;PMS7003;55690;51.566;19.198;2023-04-24T03:27:56;16;13;10
68713;PMS7003;55690;51.566;19.198;2023-04-24T03:32:03;12;12;9
68713;PMS7003;55690;51.566;19.198;2023-04-24T03:36:09;10;10;9
68713;PMS7003;55690;51.566;19.198;2023-04-24T03:40:15;20;15;11
68713;PMS7003;55690;51.566;19.198;2023-04-24T03:44:21;16;16;13
68713;PMS7003;55690;51.566;19.198;2023-04-24T03:48:27;11;11;8
68713;PMS7003;55690;51.566;19.198;2023-04-24T03:52:33;21;14;10
68713;PMS7003;55690;51.566;19.198;2023-04-24T03:56:40;21;15;12
68713;PMS7003;55690;51.566;19.198;2023-04-24T04:00:46;18;14;11
68713;PMS7003;55690;51.566;19.198;2023-04-24T04:04:52;16;11;8
68713;PMS7003;55690;51.566;19.198;2023-04-24T04:08:58;13;11;6
68713;PMS7003;55690;51.566;19.198;2023-04-24T04:13:04;17;10;7
68713;PMS7003;55690;51.566;19.198;2023-04-24T04:17:10;16;11;9
68713;PMS7003;55690;51.566;19.198;2023-04-24T04:21:17;19;12;10
68713;PMS7003;55690;51.566;19.198;2023-04-24T04:25:23;23;18;12
68713;PMS7003;55690;51.566;19.198;2023-04-24T04:29:29;52;37;24
68713;PMS7003;55690;51.566;19.198;2023-04-24T04:33:35;44;25;14
68713;PMS7003;55690;51.566;19.198;2023-04-24T04:37:41;35;24;16
68713;PMS7003;55690;51.566;19.198;2023-04-24T04:41:47;18;15;12
68713;PMS7003;55690;51.566;19.198;2023-04-24T04:45:54;16;14;11
68713;PMS7003;55690;51.566;19.198;2023-04-24T04:50:00;21;18;12
68713;PMS7003;55690;51.566;19.198;2023-04-24T04:54:06;9;9;6
68713;PMS7003;55690;51.566;19.198;2023-04-24T04:58:12;24;22;12
68713;PMS7003;55690;51.566;19.198;2023-04-24T05:02:18;13;11;6
68713;PMS7003;55690;51.566;19.198;2023-04-24T05:06:24;17;14;9
68713;PMS7003;55690;51.566;19.198;2023-04-24T05:10:31;14;13;9
68713;PMS7003;55690;51.566;19.198;2023-04-24T05:14:37;6;6;5
68713;PMS7003;55690;51.566;19.198;2023-04-24T05:18:43;8;8;7
68713;PMS7003;55690;51.566;19.198;2023-04-24T05:22:49;17;10;9
68713;PMS7003;55690;51.566;19.198;2023-04-24T05:26:56;14;12;7
68713;PMS7003;55690;51.566;19.198;2023-04-24T05:31:02;26;14;11
68713;PMS7003;55690;51.566;19.198;2023-04-24T05:35:08;11;11;9
68713;PMS7003;55690;51.566;19.198;2023-04-24T05:39:14;14;13;12
68713;PMS7003;55690;51.566;19.198;2023-04-24T05:43:20;11;9;8
68713;PMS7003;55690;51.566;19.198;2023-04-24T05:47:26;13;13;10
68713;PMS7003;55690;51.566;19.198;2023-04-24T05:51:32;20;13;11
68713;PMS7003;55690;51.566;19.198;2023-04-24T05:55:39;9;8;7
68713;PMS7003;55690;51.566;19.198;2023-04-24T05:59:45;14;11;10
68713;PMS7003;55690;51.566;19.198;2023-04-24T06:03:51;11;11;10
68713;PMS7003;55690;51.566;19.198;2023-04-24T06:07:57;25;11;9
68713;PMS7003;55690;51.566;19.198;2023-04-24T06:12:03;13;13;10
68713;PMS7003;55690;51.566;19.198;2023-04-24T06:16:09;17;13;11
68713;PMS7003;55690;51.566;19.198;2023-04-24T06:20:16;22;11;10
68713;PMS7003;55690;51.566;19.198;2023-04-24T06:24:22;16;8;8
68713;PMS7003;55690;51.566;19.198;2023-04-24T06:28:28;10;10;7
68713;PMS7003;55690;51.566;19.198;2023-04-24T06:32:34;8;7;5
68713;PMS7003;55690;51.566;19.198;2023-04-24T06:36:41;11;11;10
68713;PMS7003;55690;51.566;19.198;2023-04-24T06:40:46;13;9;8
68713;PMS7003;55690;51.566;19.198;2023-04-24T06:44:53;12;10;8
68713;PMS7003;55690;51.566;19.198;2023-04-24T06:48:59;15;8;7
68713;PMS7003;55690;51.566;19.198;2023-04-24T06:53:05;13;12;10
68713;PMS7003;55690;51.566;19.198;2023-04-24T06:57:11;12;12;8
68713;PMS7003;55690;51.566;19.198;2023-04-24T07:01:17;14;14;13
68713;PMS7003;55690;51.566;19.198;2023-04-24T07:05:23;10;10;9
68713;PMS7003;55690;51.566;19.198;2023-04-24T07:09:29;13;13;9
68713;PMS7003;55690;51.566;19.198;2023-04-24T07:13:36;19;15;13
68713;PMS7003;55690;51.566;19.198;2023-04-24T07:17:42;13;13;11
68713;PMS7003;55690;51.566;19.198;2023-04-24T07:21:48;12;12;11
68713;PMS7003;55690;51.566;19.198;2023-04-24T07:25:54;11;11;9
68713;PMS7003;55690;51.566;19.198;2023-04-24T07:30:00;13;13;11
68713;PMS7003;55690;51.566;19.198;2023-04-24T07:34:06;10;10;8
68713;PMS7003;55690;51.566;19.198;2023-04-24T07:38:13;12;11;9
68713;PMS7003;55690;51.566;19.198;2023-04-24T07:42:19;9;9;7
68713;PMS7003;55690;51.566;19.198;2023-04-24T07:46:25;9;9;9
68713;PMS7003;55690;51.566;19.198;2023-04-24T07:50:31;9;9;8
68713;PMS7003;55690;51.566;19.198;2023-04-24T07:54:37;8;8;7
68713;PMS7003;55690;51.566;19.198;2023-04-24T07:58:43;10;9;8
68713;PMS7003;55690;51.566;19.198;2023-04-24T08:02:50;7;7;6
68713;PMS7003;55690;51.566;19.198;2023-04-24T08:06:56;6;6;5
68713;PMS7003;55690;51.566;19.198;2023-04-24T08:11:02;8;8;8
68713;PMS7003;55690;51.566;19.198;2023-04-24T08:15:08;13;11;10
68713;PMS7003;55690;51.566;19.198;2023-04-24T08:19:14;7;7;7
68713;PMS7003;55690;51.566;19.198;2023-04-24T08:23:20;6;6;6
68713;PMS7003;55690;51.566;19.198;2023-04-24T08:27:27;8;8;7
68713;PMS7003;55690;51.566;19.198;2023-04-24T08:31:33;7;6;5
68713;PMS7003;55690;51.566;19.198;2023-04-24T08:35:39;9;8;7
68713;PMS7003;55690;51.566;19.198;2023-04-24T08:39:46;7;7;5
68713;PMS7003;55690;51.566;19.198;2023-04-24T08:43:51;11;11;10
68713;PMS7003;55690;51.566;19.198;2023-04-24T08:47:57;11;6;5
68713;PMS7003;55690;51.566;19.198;2023-04-24T08:52:06;7;7;7
68713;PMS7003;55690;51.566;19.198;2023-04-24T08:56:10;7;7;6
68713;PMS7003;55690;51.566;19.198;2023-04-24T09:00:16;10;10;8
68713;PMS7003;55690;51.566;19.198;2023-04-24T09:04:22;8;7;6
68713;PMS7003;55690;51.566;19.198;2023-04-24T09:08:28;12;12;8
68713;PMS7003;55690;51.566;19.198;2023-04-24T09:12:34;8;8;7
68713;PMS7003;55690;51.566;19.198;2023-04-24T09:16:41;7;7;6
68713;PMS7003;55690;51.566;19.198;2023-04-24T09:25:02;7;7;6
68713;PMS7003;55690;51.566;19.198;2023-04-24T09:29:07;11;10;8
68713;PMS7003;55690;51.566;19.198;2023-04-24T09:41:31;12;8;7
68713;PMS7003;55690;51.566;19.198;2023-04-24T09:45:37;8;8;7
68713;PMS7003;55690;51.566;19.198;2023-04-24T09:49:40;8;8;7
68713;PMS7003;55690;51.566;19.198;2023-04-24T09:53:47;7;7;6
68713;PMS7003;55690;51.566;19.198;2023-04-24T09:57:52;9;7;7
68713;PMS7003;55690;51.566;19.198;2023-04-24T10:01:59;10;8;7
68713;PMS7003;55690;51.566;19.198;2023-04-24T10:06:01;19;13;10
68713;PMS7003;55690;51.566;19.198;2023-04-24T10:10:11;6;6;5
68713;PMS7003;55690;51.566;19.198;2023-04-24T10:14:20;12;12;8
68713;PMS7003;55690;51.566;19.198;2023-04-24T10:18:23;9;6;5
68713;PMS7003;55690;51.566;19.198;2023-04-24T10:22:26;8;7;6
68713;PMS7003;55690;51.566;19.198;2023-04-24T10:26:31;15;9;8
68713;PMS7003;55690;51.566;19.198;2023-04-24T10:30:33;6;6;5
68713;PMS7003;55690;51.566;19.198;2023-04-24T10:38:45;8;7;6
68713;PMS7003;55690;51.566;19.198;2023-04-24T10:42:52;6;6;6
68713;PMS7003;55690;51.566;19.198;2023-04-24T10:46:57;8;8;7
68713;PMS7003;55690;51.566;19.198;2023-04-24T10:51:03;13;13;11
68713;PMS7003;55690;51.566;19.198;2023-04-24T10:55:10;7;7;6
68713;PMS7003;55690;51.566;19.198;2023-04-24T10:59:37;7;7;6
68713;PMS7003;55690;51.566;19.198;2023-04-24T11:03:29;12;10;8
68713;PMS7003;55690;51.566;19.198;2023-04-24T11:11:46;7;7;6
68713;PMS7003;55690;51.566;19.198;2023-04-24T11:20:05;8;8;7
68713;PMS7003;55690;51.566;19.198;2023-04-24T11:28:23;8;8;7
68713;PMS7003;55690;51.566;19.198;2023-04-24T11:36:37;10;8;8
68713;PMS7003;55690;51.566;19.198;2023-04-24T11:40:39;6;6;6
68713;PMS7003;55690;51.566;19.198;2023-04-24T11:44:42;10;8;6
68713;PMS7003;55690;51.566;19.198;2023-04-24T11:48:47;6;6;5
68713;PMS7003;55690;51.566;19.198;2023-04-24T11:52:49;8;8;7
68713;PMS7003;55690;51.566;19.198;2023-04-24T11:56:51;8;8;6
68713;PMS7003;55690;51.566;19.198;2023-04-24T12:00:56;15;9;8
68713;PMS7003;55690;51.566;19.198;2023-04-24T12:05:01;15;9;7
68713;PMS7003;55690;51.566;19.198;2023-04-24T12:09:04;7;6;6
68713;PMS7003;55690;51.566;19.198;2023-04-24T12:13:08;9;9;9
68713;PMS7003;55690;51.566;19.198;2023-04-24T12:17:13;12;10;9
68713;PMS7003;55690;51.566;19.198;2023-04-24T12:21:20;10;7;7
68713;PMS7003;55690;51.566;19.198;2023-04-24T12:25:26;8;8;7
68713;PMS7003;55690;51.566;19.198;2023-04-24T12:29:31;7;7;6
68713;PMS7003;55690;51.566;19.198;2023-04-24T12:33:38;7;7;7
68713;PMS7003;55690;51.566;19.198;2023-04-24T12:37:43;6;6;5
68713;PMS7003;55690;51.566;19.198;2023-04-24T12:41:50;11;8;7
68713;PMS7003;55690;51.566;19.198;2023-04-24T12:45:57;10;10;8
68713;PMS7003;55690;51.566;19.198;2023-04-24T12:50:02;8;8;8
68713;PMS7003;55690;51.566;19.198;2023-04-24T12:54:08;10;9;7
68713;PMS7003;55690;51.566;19.198;2023-04-24T12:58:14;11;9;6
68713;PMS7003;55690;51.566;19.198;2023-04-24T13:02:20;10;10;8
68713;PMS7003;55690;51.566;19.198;2023-04-24T13:06:27;7;7;6
68713;PMS7003;55690;51.566;19.198;2023-04-24T13:10:33;6;6;5
68713;PMS7003;55690;51.566;19.198;2023-04-24T13:14:39;10;9;8
68713;PMS7003;55690;51.566;19.198;2023-04-24T13:18:45;10;10;9
68713;PMS7003;55690;51.566;19.198;2023-04-24T13:22:51;17;10;9
68713;PMS7003;55690;51.566;19.198;2023-04-24T13:26:58;9;9;8
68713;PMS7003;55690;51.566;19.198;2023-04-24T13:31:04;13;11;11
68713;PMS7003;55690;51.566;19.198;2023-04-24T13:35:10;11;7;6
68713;PMS7003;55690;51.566;19.198;2023-04-24T13:39:16;11;11;11
68713;PMS7003;55690;51.566;19.198;2023-04-24T13:43:22;15;8;8
68713;PMS7003;55690;51.566;19.198;2023-04-24T13:47:28;10;10;10
68713;PMS7003;55690;51.566;19.198;2023-04-24T13:51:34;9;9;8
68713;PMS7003;55690;51.566;19.198;2023-04-24T13:55:40;7;7;6
68713;PMS7003;55690;51.566;19.198;2023-04-24T13:59:47;12;12;10
68713;PMS7003;55690;51.566;19.198;2023-04-24T14:03:53;10;10;9
68713;PMS7003;55690;51.566;19.198;2023-04-24T14:07:59;7;7;6
68713;PMS7003;55690;51.566;19.198;2023-04-24T14:12:05;10;10;9
68713;PMS7003;55690;51.566;19.198;2023-04-24T14:16:11;9;8;6
68713;PMS7003;55690;51.566;19.198;2023-04-24T14:20:17;8;8;7
68713;PMS7003;55690;51.566;19.198;2023-04-24T14:24:24;12;11;9
68713;PMS7003;55690;51.566;19.198;2023-04-24T14:28:30;9;8;8
68713;PMS7003;55690;51.566;19.198;2023-04-24T14:32:37;7;7;6
68713;PMS7003;55690;51.566;19.198;2023-04-24T14:36:42;10;8;7
68713;PMS7003;55690;51.566;19.198;2023-04-24T14:40:48;8;8;7
68713;PMS7003;55690;51.566;19.198;2023-04-24T14:44:54;8;8;7
68713;PMS7003;55690;51.566;19.198;2023-04-24T14:49:01;12;12;10
68713;PMS7003;55690;51.566;19.198;2023-04-24T14:53:07;7;7;6
68713;PMS7003;55690;51.566;19.198;2023-04-24T14:57:13;9;8;7
68713;PMS7003;55690;51.566;19.198;2023-04-24T15:01:19;9;8;8
68713;PMS7003;55690;51.566;19.198;2023-04-24T15:05:25;7;7;5
68713;PMS7003;55690;51.566;19.198;2023-04-24T15:09:31;9;9;8
68713;PMS7003;55690;51.566;19.198;2023-04-24T15:13:38;11;8;7
68713;PMS7003;55690;51.566;19.198;2023-04-24T15:17:44;13;12;11
68713;PMS7003;55690;51.566;19.198;2023-04-24T15:21:50;10;10;9
68713;PMS7003;55690;51.566;19.198;2023-04-24T15:25:56;12;12;10
68713;PMS7003;55690;51.566;19.198;2023-04-24T15:30:02;9;9;8
68713;PMS7003;55690;51.566;19.198;2023-04-24T15:34:08;13;13;11
68713;PMS7003;55690;51.566;19.198;2023-04-24T15:38:14;15;11;9
68713;PMS7003;55690;51.566;19.198;2023-04-24T15:42:21;8;8;7
68713;PMS7003;55690;51.566;19.198;2023-04-24T15:46:27;10;6;5
68713;PMS7003;55690;51.566;19.198;2023-04-24T15:50:33;9;7;7
68713;PMS7003;55690;51.566;19.198;2023-04-24T15:54:39;14;10;9
68713;PMS7003;55690;51.566;19.198;2023-04-24T15:58:45;11;11;9
68713;PMS7003;55690;51.566;19.198;2023-04-24T16:02:51;13;13;11
68713;PMS7003;55690;51.566;19.198;2023-04-24T16:06:58;13;13;11
68713;PMS7003;55690;51.566;19.198;2023-04-24T16:11:04;11;9;6
68713;PMS7003;55690;51.566;19.198;2023-04-24T16:15:10;11;11;10
68713;PMS7003;55690;51.566;19.198;2023-04-24T16:19:16;10;10;9
68713;PMS7003;55690;51.566;19.198;2023-04-24T16:23:23;16;9;8
68713;PMS7003;55690;51.566;19.198;2023-04-24T16:27:29;12;12;9
68713;PMS7003;55690;51.566;19.198;2023-04-24T16:31:35;11;10;9
68713;PMS7003;55690;51.566;19.198;2023-04-24T16:35:41;10;10;8
68713;PMS7003;55690;51.566;19.198;2023-04-24T16:39:47;14;12;9
68713;PMS7003;55690;51.566;19.198;2023-04-24T16:43:53;12;10;9
68713;PMS7003;55690;51.566;19.198;2023-04-24T16:48:00;13;10;8
68713;PMS7003;55690;51.566;19.198;2023-04-24T16:52:06;14;14;7
68713;PMS7003;55690;51.566;19.198;2023-04-24T16:56:12;11;10;8
68713;PMS7003;55690;51.566;19.198;2023-04-24T17:00:18;13;13;11
68713;PMS7003;55690;51.566;19.198;2023-04-24T17:04:24;12;12;10
68713;PMS7003;55690;51.566;19.198;2023-04-24T17:08:30;12;11;10
68713;PMS7003;55690;51.566;19.198;2023-04-24T17:12:36;10;10;9
68713;PMS7003;55690;51.566;19.198;2023-04-24T17:16:42;7;6;4
68713;PMS7003;55690;51.566;19.198;2023-04-24T17:20:49;19;12;7
68713;PMS7003;55690;51.566;19.198;2023-04-24T17:24:55;13;11;9
68713;PMS7003;55690;51.566;19.198;2023-04-24T17:29:01;11;11;10
68713;PMS7003;55690;51.566;19.198;2023-04-24T17:33:07;18;11;10
68713;PMS7003;55690;51.566;19.198;2023-04-24T17:37:14;13;13;10
68713;PMS7003;55690;51.566;19.198;2023-04-24T17:41:19;17;11;9
68713;PMS7003;55690;51.566;19.198;2023-04-24T17:45:26;14;14;10
68713;PMS7003;55690;51.566;19.198;2023-04-24T17:49:32;15;11;10
68713;PMS7003;55690;51.566;19.198;2023-04-24T17:53:38;10;10;8
68713;PMS7003;55690;51.566;19.198;2023-04-24T17:57:44;12;12;9
68713;PMS7003;55690;51.566;19.198;2023-04-24T18:01:50;15;15;12
68713;PMS7003;55690;51.566;19.198;2023-04-24T18:05:56;19;15;13
68713;PMS7003;55690;51.566;19.198;2023-04-24T18:10:03;13;13;12
68713;PMS7003;55690;51.566;19.198;2023-04-24T18:14:09;18;18;15
68713;PMS7003;55690;51.566;19.198;2023-04-24T18:18:15;17;17;14
68713;PMS7003;55690;51.566;19.198;2023-04-24T18:22:21;16;14;12
68713;PMS7003;55690;51.566;19.198;2023-04-24T18:26:27;14;12;10
68713;PMS7003;55690;51.566;19.198;2023-04-24T18:30:34;14;11;8
68713;PMS7003;55690;51.566;19.198;2023-04-24T18:34:40;14;14;11
68713;PMS7003;55690;51.566;19.198;2023-04-24T18:38:46;11;11;9
68713;PMS7003;55690;51.566;19.198;2023-04-24T18:42:52;9;9;9
68713;PMS7003;55690;51.566;19.198;2023-04-24T18:46:58;12;10;8
68713;PMS7003;55690;51.566;19.198;2023-04-24T18:51:04;18;14;12
68713;PMS7003;55690;51.566;19.198;2023-04-24T18:55:11;9;9;7
68713;PMS7003;55690;51.566;19.198;2023-04-24T18:59:17;14;10;8
68713;PMS7003;55690;51.566;19.198;2023-04-24T19:03:23;10;10;8
68713;PMS7003;55690;51.566;19.198;2023-04-24T19:07:29;15;15;12
68713;PMS7003;55690;51.566;19.198;2023-04-24T19:11:35;11;10;8
68713;PMS7003;55690;51.566;19.198;2023-04-24T19:15:42;14;10;9
68713;PMS7003;55690;51.566;19.198;2023-04-24T19:19:47;16;10;8
68713;PMS7003;55690;51.566;19.198;2023-04-24T19:23:54;13;13;9
68713;PMS7003;55690;51.566;19.198;2023-04-24T19:28:00;11;9;7
68713;PMS7003;55690;51.566;19.198;2023-04-24T19:32:06;20;15;12
68713;PMS7003;55690;51.566;19.198;2023-04-24T19:36:13;16;12;8
68713;PMS7003;55690;51.566;19.198;2023-04-24T19:40:18;23;14;12
68713;PMS7003;55690;51.566;19.198;2023-04-24T19:44:25;25;12;11
68713;PMS7003;55690;51.566;19.198;2023-04-24T19:48:31;12;10;8
68713;PMS7003;55690;51.566;19.198;2023-04-24T19:52:37;20;12;9
68713;PMS7003;55690;51.566;19.198;2023-04-24T19:56:43;13;13;10
68713;PMS7003;55690;51.566;19.198;2023-04-24T20:00:49;19;17;13
68713;PMS7003;55690;51.566;19.198;2023-04-24T20:04:55;14;12;7
68713;PMS7003;55690;51.566;19.198;2023-04-24T20:09:02;21;21;18
68713;PMS7003;55690;51.566;19.198;2023-04-24T20:13:08;18;16;12
68713;PMS7003;55690;51.566;19.198;2023-04-24T20:17:14;11;11;8
68713;PMS7003;55690;51.566;19.198;2023-04-24T20:21:20;25;20;13
68713;PMS7003;55690;51.566;19.198;2023-04-24T20:25:26;13;13;9
68713;PMS7003;55690;51.566;19.198;2023-04-24T20:29:32;18;18;12
68713;PMS7003;55690;51.566;19.198;2023-04-24T20:33:39;10;10;7
68713;PMS7003;55690;51.566;19.198;2023-04-24T20:37:45;14;12;9
68713;PMS7003;55690;51.566;19.198;2023-04-24T20:41:51;14;12;10
68713;PMS7003;55690;51.566;19.198;2023-04-24T20:45:57;10;8;7
68713;PMS7003;55690;51.566;19.198;2023-04-24T20:50:04;13;13;9
68713;PMS7003;55690;51.566;19.198;2023-04-24T20:54:09;18;7;6
68713;PMS7003;55690;51.566;19.198;2023-04-24T20:58:16;16;7;7
68713;PMS7003;55690;51.566;19.198;2023-04-24T21:02:22;7;7;6
68713;PMS7003;55690;51.566;19.198;2023-04-24T21:06:28;10;9;8
68713;PMS7003;55690;51.566;19.198;2023-04-24T21:10:34;12;7;6
68713;PMS7003;55690;51.566;19.198;2023-04-24T21:14:40;14;6;5
68713;PMS7003;55690;51.566;19.198;2023-04-24T21:18:46;10;10;6
68713;PMS7003;55690;51.566;19.198;2023-04-24T21:22:53;8;4;3
68713;PMS7003;55690;51.566;19.198;2023-04-24T21:26:59;7;7;5
68713;PMS7003;55690;51.566;19.198;2023-04-24T21:31:05;9;6;5
68713;PMS7003;55690;51.566;19.198;2023-04-24T21:35:12;8;7;5
68713;PMS7003;55690;51.566;19.198;2023-04-24T21:39:17;8;6;5
68713;PMS7003;55690;51.566;19.198;2023-04-24T21:43:23;11;10;8
68713;PMS7003;55690;51.566;19.198;2023-04-24T21:47:30;13;11;7
68713;PMS7003;55690;51.566;19.198;2023-04-24T21:51:36;13;5;3
68713;PMS7003;55690;51.566;19.198;2023-04-24T21:55:43;10;10;9
68713;PMS7003;55690;51.566;19.198;2023-04-24T21:59:48;5;5;4
68713;PMS7003;55690;51.566;19.198;2023-04-24T22:03:54;11;10;8
68713;PMS7003;55690;51.566;19.198;2023-04-24T22:08:00;7;7;5
68713;PMS7003;55690;51.566;19.198;2023-04-24T22:12:07;15;8;6
68713;PMS7003;55690;51.566;19.198;2023-04-24T22:16:13;5;5;5
68713;PMS7003;55690;51.566;19.198;2023-04-24T22:20:20;12;6;5
68713;PMS7003;55690;51.566;19.198;2023-04-24T22:24:25;7;7;4
68713;PMS7003;55690;51.566;19.198;2023-04-24T22:28:31;17;6;4
68713;PMS7003;55690;51.566;19.198;2023-04-24T22:32:37;10;8;7
68713;PMS7003;55690;51.566;19.198;2023-04-24T22:36:44;5;5;4
68713;PMS7003;55690;51.566;19.198;2023-04-24T22:40:50;7;6;4
68713;PMS7003;55690;51.566;19.198;2023-04-24T22:44:56;12;5;4
68713;PMS7003;55690;51.566;19.198;2023-04-24T22:49:02;4;4;3
68713;PMS7003;55690;51.566;19.198;2023-04-24T22:53:08;8;8;7
68713;PMS7003;55690;51.566;19.198;2023-04-24T22:57:14;16;7;6
68713;PMS7003;55690;51.566;19.198;2023-04-24T23:01:21;6;6;3
68713;PMS7003;55690;51.566;19.198;2023-04-24T23:05:27;14;8;5
68713;PMS7003;55690;51.566;19.198;2023-04-24T23:09:33;4;4;3
68713;PMS7003;55690;51.566;19.198;2023-04-24T23:13:39;5;5;3
68713;PMS7003;55690;51.566;19.198;2023-04-24T23:17:45;8;4;4
68713;PMS7003;55690;51.566;19.198;2023-04-24T23:21:51;4;3;3
68713;PMS7003;55690;51.566;19.198;2023-04-24T23:25:58;5;4;3
68713;PMS7003;55690;51.566;19.198;2023-04-24T23:30:04;3;3;3
68713;PMS7003;55690;51.566;19.198;2023-04-24T23:34:10;5;5;4
68713;PMS7003;55690;51.566;19.198;2023-04-24T23:38:16;4;2;1
68713;PMS7003;55690;51.566;19.198;2023-04-24T23:42:22;2;2;1
68713;PMS7003;55690;51.566;19.198;2023-04-24T23:46:28;1;1;1
68713;PMS7003;55690;51.566;19.198;2023-04-24T23:50:35;3;3;3
68713;PMS7003;55690;51.566;19.198;2023-04-24T23:54:41;3;3;3
68713;PMS7003;55690;51.566;19.198;2023-04-24T23:58:47;5;3;2
